Time;durP1;ratioP1;P1;durP2;ratioP2;P2;SDS_P1;SDS_P2;PMS_P1;PMS_P2;Temp;Humidity;BMP_temperature;BMP_pressure;BME280_temperature;BME280_humidity;BME280_pressure;Samples;Min_cycle;Max_cycle;Signal;HPM_P1;HPM_P2
2021/11/12 00:04:56;;;;;;;10.77;8.05;;;2.80;99.90;;;;;;4954007;29;20204;-64
2021/11/12 00:13:27;;;;;;;13.60;10.32;;;2.80;99.90;;;;;;4954024;29;20200;-63
2021/11/12 00:15:54;;;;;;;16.17;10.32;;;2.80;99.90;;;;;;4951556;29;20770;-63
2021/11/12 00:18:26;;;;;;;13.48;9.38;;;2.80;99.90;;;;;;4953040;28;20299;-64
2021/11/12 00:20:54;;;;;;;13.20;10.65;;;2.70;99.90;;;;;;4953540;29;20181;-63
2021/11/12 00:23:21;;;;;;;13.75;9.90;;;2.70;99.90;;;;;;4953526;29;20268;-64
2021/11/12 00:25:50;;;;;;;11.85;8.40;;;2.70;99.90;;;;;;4953358;29;20184;-64
2021/11/12 00:28:17;;;;;;;19.20;10.30;;;2.70;99.90;;;;;;4953021;28;20197;-64
2021/11/12 00:35:52;;;;;;;10.82;6.88;;;2.60;99.90;;;;;;4991922;28;20175;-63
2021/11/12 00:38:21;;;;;;;14.50;9.18;;;2.60;99.90;;;;;;5013303;28;20186;-63
2021/11/12 00:46:09;;;;;;;11.63;8.50;;;2.70;99.90;;;;;;5013733;28;20186;-64
2021/11/12 00:48:29;;;;;;;12.30;10.93;;;2.70;99.90;;;;;;5011733;28;20203;-64
2021/11/12 00:51:08;;;;;;;13.90;10.13;;;2.70;99.90;;;;;;5013694;28;20178;-63
2021/11/12 00:54:07;;;;;;;13.57;9.23;;;2.70;99.90;;;;;;5013558;28;20170;-64
2021/11/12 00:56:28;;;;;;;13.27;9.57;;;2.60;99.90;;;;;;5012857;28;20203;-63
2021/11/12 00:58:57;;;;;;;13.13;11.80;;;2.50;99.90;;;;;;5013187;28;20186;-64
2021/11/12 01:01:24;;;;;;;11.60;7.43;;;2.50;99.90;;;;;;5013176;28;20232;-63
2021/11/12 01:03:51;;;;;;;18.23;10.73;;;2.50;99.90;;;;;;5013387;28;20248;-63
2021/11/12 01:06:18;;;;;;;15.32;8.82;;;2.50;99.90;;;;;;5012993;28;20190;-64
2021/11/12 01:08:44;;;;;;;12.55;8.00;;;2.50;99.90;;;;;;5013120;28;20179;-63
2021/11/12 01:11:10;;;;;;;16.65;9.82;;;2.50;99.90;;;;;;5013284;28;20173;-65
2021/11/12 01:13:37;;;;;;;10.60;7.43;;;2.50;99.90;;;;;;5013539;28;20259;-63
2021/11/12 01:16:05;;;;;;;13.40;9.13;;;2.50;99.90;;;;;;5013101;28;20189;-62
2021/11/12 01:18:34;;;;;;;9.75;8.43;;;2.50;99.90;;;;;;5012821;28;20555;-64
2021/11/12 01:20:59;;;;;;;11.70;8.65;;;2.50;99.90;;;;;;5013417;28;20551;-64
2021/11/12 01:23:25;;;;;;;8.10;6.97;;;2.50;99.90;;;;;;5013294;28;20171;-64
2021/11/12 01:25:51;;;;;;;15.30;11.60;;;2.50;99.90;;;;;;5018000;28;20275;-64
2021/11/12 01:28:19;;;;;;;17.00;10.95;;;2.50;99.90;;;;;;5032593;28;20637;-64
2021/11/12 01:30:44;;;;;;;16.23;9.13;;;2.50;99.90;;;;;;5032842;28;20181;-64
2021/11/12 01:33:10;;;;;;;19.10;8.90;;;2.60;99.90;;;;;;5033242;28;20174;-64
2021/11/12 01:35:37;;;;;;;13.40;7.50;;;2.50;99.90;;;;;;5032829;28;20253;-64
2021/11/12 01:38:02;;;;;;;17.67;11.38;;;2.50;99.90;;;;;;5032192;28;20523;-64
2021/11/12 01:40:29;;;;;;;13.60;6.73;;;2.50;99.90;;;;;;5032914;28;20714;-64
2021/11/12 01:53:49;;;;;;;15.38;8.32;;;2.40;99.90;;;;;;5036686;28;20581;-63
2021/11/12 02:01:31;;;;;;;12.65;8.40;;;2.40;99.90;;;;;;5036460;28;20174;-63
2021/11/12 02:03:57;;;;;;;7.68;6.97;;;2.50;99.90;;;;;;5036445;28;20574;-63
2021/11/12 02:06:24;;;;;;;9.00;6.10;;;2.50;99.90;;;;;;5035941;28;20175;-63
2021/11/12 02:08:50;;;;;;;15.05;8.98;;;2.40;99.90;;;;;;5036017;28;20194;-63
2021/11/12 02:11:17;;;;;;;20.58;10.13;;;2.40;99.90;;;;;;5036408;28;20216;-64
2021/11/12 02:13:44;;;;;;;13.38;8.27;;;2.40;99.90;;;;;;5036181;28;20528;-63
2021/11/12 02:16:20;;;;;;;12.30;8.90;;;2.40;99.90;;;;;;5035876;28;20586;-63
2021/11/12 02:18:46;;;;;;;15.57;11.35;;;2.30;99.90;;;;;;5036062;28;20194;-63
2021/11/12 02:23:48;;;;;;;10.80;8.10;;;2.30;99.90;;;;;;5036040;28;20197;-62
2021/11/12 02:26:22;;;;;;;10.68;9.45;;;2.30;99.90;;;;;;5035509;28;20412;-63
2021/11/12 02:28:52;;;;;;;10.15;8.05;;;2.40;99.90;;;;;;5036014;28;20205;-63
2021/11/12 02:31:18;;;;;;;10.95;8.70;;;2.40;99.90;;;;;;5035720;28;20173;-63
2021/11/12 02:33:44;;;;;;;10.97;7.43;;;2.40;99.90;;;;;;5035873;28;20174;-62
2021/11/12 02:36:12;;;;;;;10.00;8.60;;;2.40;99.90;;;;;;5035582;28;20769;-62
2021/11/12 02:38:42;;;;;;;13.65;8.35;;;2.40;99.90;;;;;;5035274;28;20793;-62
2021/11/12 02:41:08;;;;;;;12.07;9.63;;;2.40;99.90;;;;;;5035566;28;20638;-63
2021/11/12 02:43:35;;;;;;;17.02;9.95;;;2.50;99.90;;;;;;5035438;28;20167;-63
2021/11/12 02:46:03;;;;;;;14.88;10.68;;;2.40;99.90;;;;;;5035556;28;20185;-62
2021/11/12 02:48:32;;;;;;;8.82;6.93;;;2.40;99.90;;;;;;5035088;28;20204;-63
2021/11/12 02:50:58;;;;;;;14.38;9.07;;;2.40;99.90;;;;;;5035513;28;20598;-63
2021/11/12 02:53:23;;;;;;;17.27;9.43;;;2.50;99.90;;;;;;5035253;28;20173;-63
2021/11/12 02:55:50;;;;;;;11.20;9.83;;;2.50;99.90;;;;;;5034254;28;20174;-63
2021/11/12 02:58:16;;;;;;;8.80;7.85;;;2.50;99.90;;;;;;5034986;28;20190;-63
2021/11/12 03:00:43;;;;;;;11.90;8.10;;;2.50;99.90;;;;;;5017844;28;20266;-63
2021/11/12 03:03:09;;;;;;;10.95;9.75;;;2.50;99.90;;;;;;5035300;28;20905;-63
2021/11/12 03:05:35;;;;;;;16.77;7.82;;;2.50;99.90;;;;;;5035207;28;20263;-63
2021/11/12 03:08:01;;;;;;;11.88;8.48;;;2.50;99.90;;;;;;5034544;28;20633;-63
2021/11/12 03:10:28;;;;;;;15.70;9.93;;;2.60;99.90;;;;;;5035282;28;20260;-63
2021/11/12 03:12:53;;;;;;;13.43;8.07;;;2.50;99.90;;;;;;5035417;28;20416;-63
2021/11/12 03:15:20;;;;;;;9.83;8.67;;;2.50;99.90;;;;;;5034908;28;20198;-63
2021/11/12 03:17:49;;;;;;;27.77;8.18;;;2.50;99.90;;;;;;5034543;28;20331;-64
2021/11/12 03:20:16;;;;;;;16.77;9.13;;;2.50;99.90;;;;;;5035025;28;20532;-63
2021/11/12 03:23:28;;;;;;;11.57;7.22;;;2.40;99.90;;;;;;5035004;28;20181;-63
2021/11/12 04:20:04;;;;;;;11.32;7.07;;;2.10;99.90;;;;;;5033741;28;20193;-64
2021/11/12 05:46:13;;;;;;;6.28;5.50;;;1.80;99.90;;;;;;5037012;28;20356;-63
2021/11/12 05:56:57;;;;;;;8.52;6.53;;;1.80;99.90;;;;;;5036448;28;20269;-63
2021/11/12 05:59:24;;;;;;;8.45;7.75;;;1.90;99.90;;;;;;5036515;28;20228;-64
2021/11/12 06:01:50;;;;;;;8.52;7.65;;;1.90;99.90;;;;;;5036298;28;20189;-64
2021/11/12 06:04:16;;;;;;;12.32;8.20;;;2.00;99.90;;;;;;5035648;28;20194;-63
2021/11/12 06:06:42;;;;;;;9.30;7.73;;;2.00;99.90;;;;;;5035906;28;20180;-63
2021/11/12 06:09:08;;;;;;;11.15;6.63;;;2.10;99.90;;;;;;5034988;28;20442;-63
2021/11/12 06:11:35;;;;;;;9.95;7.75;;;2.10;99.90;;;;;;5034940;28;20170;-63
2021/11/12 06:14:01;;;;;;;8.80;6.38;;;2.10;99.90;;;;;;5035934;28;20186;-63
2021/11/12 06:16:27;;;;;;;6.05;5.47;;;2.10;99.90;;;;;;5035167;28;20194;-63
2021/11/12 06:18:53;;;;;;;9.82;7.30;;;2.00;99.90;;;;;;5035472;28;20202;-64
2021/11/12 06:21:23;;;;;;;9.38;7.05;;;2.00;99.90;;;;;;5035397;28;20170;-62
2021/11/12 06:23:49;;;;;;;7.90;6.80;;;2.00;99.90;;;;;;5033789;28;20214;-63
2021/11/12 06:26:15;;;;;;;6.03;5.43;;;2.00;99.90;;;;;;5034480;28;20193;-64
2021/11/12 06:28:42;;;;;;;7.82;6.72;;;1.90;99.90;;;;;;5035078;28;20665;-63
2021/11/12 06:31:08;;;;;;;6.85;6.22;;;1.80;99.90;;;;;;5035432;28;20700;-63
2021/11/12 06:33:33;;;;;;;7.75;6.97;;;1.80;99.90;;;;;;5017929;28;20184;-63
2021/11/12 06:35:59;;;;;;;10.57;6.80;;;1.80;99.90;;;;;;5033877;28;20261;-63
2021/11/12 06:38:28;;;;;;;7.43;6.15;;;1.80;99.90;;;;;;5033302;28;20190;-63
2021/11/12 06:40:55;;;;;;;11.27;6.30;;;1.80;99.90;;;;;;5033431;28;20175;-63
2021/11/12 06:43:37;;;;;;;9.40;7.90;;;1.80;99.90;;;;;;5033562;28;20168;-64
2021/11/12 06:51:31;;;;;;;7.60;6.90;;;1.80;99.90;;;;;;5033665;28;20633;-65
2021/11/12 06:53:57;;;;;;;10.35;9.25;;;1.80;99.90;;;;;;5033343;28;20162;-65
2021/11/12 06:56:23;;;;;;;9.73;7.80;;;1.90;99.90;;;;;;5033194;28;20182;-63
2021/11/12 06:58:51;;;;;;;12.57;8.65;;;1.90;99.90;;;;;;5034369;28;20204;-64
2021/11/12 07:01:17;;;;;;;8.85;7.93;;;1.90;99.90;;;;;;5035095;28;20553;-64
2021/11/12 07:03:43;;;;;;;9.00;7.82;;;1.90;99.90;;;;;;5034954;28;20178;-64
2021/11/12 07:06:09;;;;;;;8.30;6.80;;;2.00;99.90;;;;;;5035321;28;20171;-64
2021/11/12 07:08:35;;;;;;;8.33;7.53;;;1.90;99.90;;;;;;5034060;28;20433;-64
2021/11/12 07:11:01;;;;;;;10.00;7.65;;;2.00;99.90;;;;;;5034836;28;20412;-64
2021/11/12 07:13:28;;;;;;;7.77;6.97;;;1.90;99.90;;;;;;5034963;28;20546;-69
2021/11/12 07:15:58;;;;;;;9.88;8.48;;;2.00;99.90;;;;;;5034737;28;20178;-67
2021/11/12 07:18:26;;;;;;;7.70;5.20;;;2.10;99.90;;;;;;5034713;28;20190;-67
2021/11/12 07:20:53;;;;;;;14.10;9.40;;;2.10;99.90;;;;;;5034907;28;20169;-67
2021/11/12 07:23:20;;;;;;;7.75;5.68;;;2.20;99.90;;;;;;5033003;28;20583;-66
2021/11/12 07:25:46;;;;;;;15.68;7.50;;;2.20;99.90;;;;;;5032524;28;20193;-67
2021/11/12 07:28:13;;;;;;;7.53;6.70;;;2.30;99.90;;;;;;5031970;28;20186;-67
2021/11/12 07:30:41;;;;;;;17.80;10.95;;;2.30;99.90;;;;;;5032374;28;20194;-67
2021/11/12 07:33:08;;;;;;;9.13;5.50;;;2.30;99.90;;;;;;5032141;28;20196;-66
2021/11/12 07:35:39;;;;;;;7.60;6.25;;;2.30;99.90;;;;;;5032404;28;20181;-67
2021/11/12 07:38:14;;;;;;;8.00;6.80;;;2.30;99.90;;;;;;5032114;28;20598;-66
2021/11/12 07:41:02;;;;;;;14.20;8.10;;;2.30;99.90;;;;;;5031994;28;20166;-67
2021/11/12 07:46:33;;;;;;;10.68;7.65;;;2.40;99.90;;;;;;5034753;28;20649;-66
2021/11/12 07:49:00;;;;;;;7.93;7.05;;;2.40;99.90;;;;;;5034329;28;20212;-66
2021/11/12 07:51:27;;;;;;;8.38;6.07;;;2.40;99.90;;;;;;5034200;28;20296;-67
2021/11/12 07:53:54;;;;;;;7.82;7.00;;;2.50;99.90;;;;;;5034142;28;20223;-67
2021/11/12 07:56:21;;;;;;;11.30;7.03;;;2.60;99.90;;;;;;5033872;28;20166;-66
2021/11/12 07:58:46;;;;;;;9.50;8.75;;;2.70;99.90;;;;;;5034046;28;20277;-67
2021/11/12 08:01:12;;;;;;;11.07;8.87;;;2.80;99.90;;;;;;5034103;28;20205;-67
2021/11/12 08:03:38;;;;;;;9.37;7.83;;;2.70;99.90;;;;;;5034093;28;20181;-67
2021/11/12 08:06:07;;;;;;;10.47;7.80;;;2.70;99.90;;;;;;5033981;28;20162;-66
2021/11/12 08:08:36;;;;;;;10.27;8.95;;;2.70;99.90;;;;;;5032200;28;20495;-67
2021/11/12 08:11:11;;;;;;;7.20;6.47;;;2.80;99.90;;;;;;5033933;28;20228;-66
2021/11/12 08:31:53;;;;;;;21.55;10.90;;;2.90;99.90;;;;;;5033310;28;20173;-67
2021/11/12 08:34:46;;;;;;;12.98;7.57;;;3.00;99.90;;;;;;5033492;28;20170;-66
2021/11/12 08:37:20;;;;;;;11.10;8.10;;;2.90;99.90;;;;;;5033149;28;20158;-67
2021/11/12 08:42:31;;;;;;;11.50;8.48;;;3.10;99.90;;;;;;5033547;28;20170;-66
2021/11/12 08:45:02;;;;;;;12.25;8.77;;;3.10;99.90;;;;;;5032767;28;20212;-66
2021/11/12 08:47:41;;;;;;;15.77;8.90;;;3.20;99.90;;;;;;5032439;28;20224;-66
2021/11/12 08:50:14;;;;;;;8.70;7.22;;;3.10;99.90;;;;;;5031838;28;20442;-67
2021/11/12 08:52:40;;;;;;;9.00;6.57;;;3.10;99.90;;;;;;5032854;28;20225;-67
2021/11/12 08:55:08;;;;;;;8.25;7.40;;;3.10;99.90;;;;;;5032793;28;20178;-66
2021/11/12 08:57:34;;;;;;;10.95;8.48;;;3.10;99.90;;;;;;5032264;28;21624;-66
2021/11/12 09:00:00;;;;;;;11.05;9.15;;;3.20;99.90;;;;;;5031174;28;20192;-66
2021/11/12 09:02:27;;;;;;;8.75;7.93;;;3.20;99.90;;;;;;5031015;28;20174;-67
2021/11/12 09:04:54;;;;;;;12.60;11.07;;;3.20;99.90;;;;;;5033045;28;20284;-66
2021/11/12 09:07:20;;;;;;;14.77;11.30;;;3.20;99.90;;;;;;5031985;28;20642;-67
2021/11/12 09:09:49;;;;;;;11.50;7.97;;;3.20;99.90;;;;;;5033051;28;20197;-67
2021/11/12 09:12:15;;;;;;;16.05;11.80;;;3.40;99.90;;;;;;5032970;28;20401;-64
2021/11/12 09:14:49;;;;;;;12.90;8.73;;;3.40;99.90;;;;;;5032510;28;20186;-64
2021/11/12 09:17:17;;;;;;;11.43;9.10;;;3.50;99.90;;;;;;5030455;28;20169;-63
2021/11/12 09:19:57;;;;;;;17.48;11.57;;;3.60;99.90;;;;;;5032844;28;20181;-69
2021/11/12 09:22:26;;;;;;;18.27;10.55;;;3.60;99.90;;;;;;5033156;28;20170;-68
2021/11/12 09:24:52;;;;;;;13.88;11.65;;;3.60;99.90;;;;;;5032497;28;20194;-70
2021/11/12 09:27:19;;;;;;;12.45;8.93;;;3.60;99.90;;;;;;5030412;28;20174;-69
2021/11/12 09:29:49;;;;;;;11.30;9.30;;;3.70;99.90;;;;;;5032632;28;20182;-70
2021/11/12 09:32:15;;;;;;;12.10;10.55;;;3.70;99.90;;;;;;5032898;28;20530;-70
2021/11/12 09:34:41;;;;;;;13.77;9.02;;;3.80;99.90;;;;;;5014752;28;20201;-70
2021/11/12 09:37:09;;;;;;;15.27;10.27;;;3.80;99.90;;;;;;5032233;28;20178;-68
2021/11/12 09:39:40;;;;;;;13.00;9.82;;;3.80;99.90;;;;;;5032264;28;20193;-69
2021/11/12 09:42:07;;;;;;;20.80;11.00;;;3.80;99.90;;;;;;5031173;28;20761;-71
2021/11/12 09:44:33;;;;;;;16.02;10.93;;;3.80;99.90;;;;;;5031293;28;20280;-71
2021/11/12 09:46:59;;;;;;;19.73;10.75;;;3.80;99.90;;;;;;5014490;28;20182;-72
2021/11/12 09:49:26;;;;;;;8.50;7.70;;;3.90;99.90;;;;;;5032275;28;20272;-71
2021/11/12 09:51:52;;;;;;;13.27;9.02;;;4.00;99.90;;;;;;5032328;28;20842;-71
2021/11/12 09:54:18;;;;;;;9.33;8.17;;;4.00;99.90;;;;;;5032611;28;20210;-70
2021/11/12 09:56:44;;;;;;;8.88;8.07;;;4.00;99.90;;;;;;5032275;28;20591;-73
2021/11/12 09:59:11;;;;;;;12.20;9.17;;;3.90;99.90;;;;;;5030917;28;20190;-71
2021/11/12 10:01:40;;;;;;;13.45;9.80;;;3.90;99.90;;;;;;5030094;28;20570;-70
2021/11/12 10:04:10;;;;;;;12.63;10.85;;;4.00;99.90;;;;;;5031758;28;20281;-70
2021/11/12 10:06:39;;;;;;;12.75;9.00;;;3.90;99.90;;;;;;5036084;28;20166;-69
2021/11/12 10:09:34;;;;;;;13.75;10.82;;;4.00;99.90;;;;;;5036087;28;20550;-69
2021/11/12 10:12:00;;;;;;;11.50;9.68;;;4.10;99.90;;;;;;5022599;28;20186;-71
2021/11/12 10:14:43;;;;;;;12.40;10.23;;;4.20;99.90;;;;;;5034747;28;20208;-70
2021/11/12 10:17:11;;;;;;;16.23;11.02;;;4.20;99.90;;;;;;5035572;28;20185;-73
2021/11/12 10:19:47;;;;;;;14.52;8.90;;;4.30;99.90;;;;;;5034289;28;20201;-73
2021/11/12 10:22:16;;;;;;;12.25;10.43;;;4.30;99.90;;;;;;5034574;28;20239;-72
2021/11/12 10:24:43;;;;;;;11.57;10.38;;;4.40;99.90;;;;;;5035827;28;20312;-72
2021/11/12 10:27:13;;;;;;;14.35;9.60;;;4.40;99.90;;;;;;5035506;28;20166;-71
2021/11/12 10:29:50;;;;;;;13.00;10.15;;;4.50;99.90;;;;;;5035941;28;20177;-72
2021/11/12 10:32:22;;;;;;;18.33;10.85;;;4.50;99.90;;;;;;5035777;28;20170;-73
2021/11/12 10:34:50;;;;;;;14.40;11.70;;;4.60;99.90;;;;;;5035818;28;20215;-73
2021/11/12 10:37:25;;;;;;;14.32;10.40;;;4.80;99.90;;;;;;5036026;28;20174;-73
2021/11/12 10:39:56;;;;;;;11.63;8.35;;;4.80;99.90;;;;;;5035693;28;20184;-72
2021/11/12 10:42:25;;;;;;;17.15;8.85;;;4.90;99.90;;;;;;5035683;28;20225;-72
2021/11/12 10:44:57;;;;;;;16.50;8.85;;;4.90;99.90;;;;;;5035328;28;20746;-71
2021/11/12 10:47:25;;;;;;;16.45;11.27;;;4.90;99.90;;;;;;5035106;28;20263;-66
2021/11/12 10:49:55;;;;;;;10.18;9.13;;;4.90;99.90;;;;;;5035584;28;20179;-67
2021/11/12 10:52:24;;;;;;;14.48;8.30;;;4.90;99.90;;;;;;5035292;28;20170;-67
2021/11/12 10:55:02;;;;;;;14.00;9.60;;;4.90;99.90;;;;;;5035351;28;20166;-66
2021/11/12 10:57:33;;;;;;;11.98;9.20;;;5.00;99.90;;;;;;5033369;28;20174;-66
2021/11/12 11:00:07;;;;;;;19.23;10.85;;;5.10;99.90;;;;;;5035370;28;20178;-66
2021/11/12 11:02:37;;;;;;;14.02;10.00;;;5.20;99.90;;;;;;5035407;28;20166;-69
2021/11/12 11:05:07;;;;;;;13.45;8.57;;;5.20;99.90;;;;;;5017466;28;20708;-65
2021/11/12 11:07:34;;;;;;;12.00;10.57;;;5.40;99.90;;;;;;5034804;28;20654;-66
2021/11/12 11:10:01;;;;;;;13.57;9.75;;;5.60;99.90;;;;;;5034283;28;20205;-65
2021/11/12 11:12:42;;;;;;;11.13;8.38;;;5.70;99.90;;;;;;5035010;28;20177;-68
2021/11/12 11:15:19;;;;;;;18.88;10.85;;;5.80;99.90;;;;;;5034483;28;20216;-65
2021/11/12 11:17:51;;;;;;;12.20;10.07;;;5.90;99.90;;;;;;5033881;28;20217;-65
2021/11/12 11:20:21;;;;;;;13.35;9.88;;;5.80;99.90;;;;;;5035220;28;20279;-64
2021/11/12 11:22:57;;;;;;;13.10;9.43;;;5.70;99.90;;;;;;5034609;28;20180;-65
2021/11/12 11:25:25;;;;;;;14.43;11.00;;;5.70;99.90;;;;;;5034008;28;20210;-65
2021/11/12 11:27:53;;;;;;;8.88;7.45;;;5.70;99.90;;;;;;5033689;28;20197;-65
2021/11/12 11:30:19;;;;;;;14.30;9.57;;;5.70;99.90;;;;;;5033995;28;20169;-66
2021/11/12 11:32:46;;;;;;;15.97;10.00;;;5.80;99.90;;;;;;5032897;28;20212;-65
2021/11/12 11:35:13;;;;;;;14.90;11.13;;;5.90;99.90;;;;;;5032618;28;20184;-64
2021/11/12 11:37:41;;;;;;;12.52;9.90;;;6.10;99.90;;;;;;5032174;28;20201;-65
2021/11/12 11:40:10;;;;;;;15.50;10.00;;;6.20;99.90;;;;;;5032528;28;20178;-66
2021/11/12 11:42:44;;;;;;;12.50;9.75;;;6.20;99.90;;;;;;5032413;28;20208;-65
2021/11/12 11:45:12;;;;;;;16.58;10.85;;;6.10;99.90;;;;;;5032625;28;20565;-66
2021/11/12 11:47:41;;;;;;;13.05;10.77;;;6.00;99.90;;;;;;5033282;28;20220;-65
2021/11/12 11:50:27;;;;;;;13.55;9.77;;;5.90;99.90;;;;;;5034575;28;20199;-66
2021/11/12 11:52:53;;;;;;;15.27;10.93;;;5.90;99.90;;;;;;5034393;28;20174;-65
2021/11/12 11:55:37;;;;;;;14.07;11.60;;;6.00;99.90;;;;;;5034391;28;20185;-65
2021/11/12 11:58:38;;;;;;;11.43;8.88;;;6.10;99.90;;;;;;5034092;28;20213;-66
2021/11/12 12:01:29;;;;;;;16.83;11.70;;;6.20;99.90;;;;;;5033887;28;20191;-65
2021/11/12 12:04:12;;;;;;;15.00;11.07;;;6.30;99.90;;;;;;5033895;28;20180;-65
2021/11/12 12:06:40;;;;;;;15.00;10.68;;;6.30;99.90;;;;;;5033985;28;20172;-69
2021/11/12 12:09:13;;;;;;;12.73;10.30;;;6.30;99.90;;;;;;5033656;28;20193;-69
2021/11/12 12:11:51;;;;;;;15.02;12.48;;;6.20;99.90;;;;;;5033717;28;20227;-69
2021/11/12 12:14:19;;;;;;;11.40;10.20;;;6.20;99.90;;;;;;5033615;28;20213;-65
2021/11/12 12:17:06;;;;;;;11.73;9.82;;;6.20;99.90;;;;;;5033789;28;20185;-66
2021/11/12 13:25:46;;;;;;;17.13;12.00;;;6.00;99.90;;;;;;5032758;28;20197;-71
2021/11/12 13:28:23;;;;;;;20.52;13.85;;;6.00;99.90;;;;;;5031756;28;20218;-70
2021/11/12 13:31:00;;;;;;;23.05;14.05;;;5.90;99.90;;;;;;5031762;28;20173;-71
2021/11/12 13:33:43;;;;;;;26.55;14.70;;;5.90;99.90;;;;;;5031281;28;20171;-71
2021/11/12 13:36:34;;;;;;;20.30;13.77;;;5.90;99.90;;;;;;5032602;28;20193;-70
2021/11/12 13:39:05;;;;;;;25.65;12.95;;;5.90;99.90;;;;;;5032568;28;20190;-70
2021/11/12 13:41:38;;;;;;;23.42;13.13;;;5.80;99.90;;;;;;5036119;28;20180;-69
2021/11/12 13:44:09;;;;;;;20.42;10.75;;;5.70;99.90;;;;;;5036167;28;20203;-69
2021/11/12 13:46:47;;;;;;;18.95;12.80;;;5.70;99.90;;;;;;5036332;28;20161;-71
2021/11/12 13:49:32;;;;;;;29.30;14.55;;;5.70;99.90;;;;;;5036316;28;20259;-71
2021/11/12 13:52:12;;;;;;;19.08;11.27;;;5.70;99.90;;;;;;5036263;28;20262;-71
2021/11/12 13:54:46;;;;;;;24.88;11.27;;;5.70;99.90;;;;;;5036273;28;20174;-70
2021/11/12 13:57:15;;;;;;;17.00;13.70;;;5.70;99.90;;;;;;5035846;28;20171;-71
2021/11/12 14:00:00;;;;;;;18.85;11.77;;;5.60;99.90;;;;;;5036042;28;20195;-69
2021/11/12 14:02:28;;;;;;;22.73;14.73;;;5.60;99.90;;;;;;5036405;28;20177;-71
2021/11/12 14:05:06;;;;;;;21.98;12.05;;;5.50;99.90;;;;;;5036179;28;20203;-70
2021/11/12 14:07:31;;;;;;;19.73;11.50;;;5.40;99.90;;;;;;5035687;28;20312;-70
2021/11/12 14:10:10;;;;;;;23.43;13.50;;;5.40;99.90;;;;;;5036109;28;20259;-70
2021/11/12 14:12:36;;;;;;;18.23;12.30;;;5.30;99.90;;;;;;5035850;28;20158;-70
2021/11/12 14:15:08;;;;;;;21.45;12.15;;;5.20;99.90;;;;;;5035956;28;20179;-71
2021/11/12 14:17:37;;;;;;;15.20;10.57;;;5.20;99.90;;;;;;5035576;28;20566;-71
2021/11/12 14:20:33;;;;;;;18.10;12.73;;;5.20;99.90;;;;;;5035442;28;20526;-71
2021/11/12 14:23:20;;;;;;;17.35;12.32;;;5.10;99.90;;;;;;5034729;28;20229;-70
2021/11/12 14:26:23;;;;;;;17.35;12.27;;;5.00;99.90;;;;;;5034291;28;20202;-70
2021/11/12 14:28:55;;;;;;;19.58;11.02;;;5.00;99.90;;;;;;5035522;28;20183;-70
2021/11/12 14:31:45;;;;;;;14.88;8.80;;;5.00;99.90;;;;;;5035806;28;20166;-69
2021/11/12 14:37:15;;;;;;;17.65;11.70;;;4.90;99.90;;;;;;5035249;28;20597;-74
2021/11/12 14:40:08;;;;;;;20.77;14.18;;;4.80;99.90;;;;;;5034968;28;20174;-66
2021/11/12 14:42:50;;;;;;;16.50;11.68;;;4.70;99.90;;;;;;5034835;28;20172;-67
2021/11/12 14:45:20;;;;;;;24.40;13.90;;;4.70;99.90;;;;;;5035197;28;20198;-66
2021/11/12 14:53:06;;;;;;;24.60;13.45;;;4.40;99.90;;;;;;5033658;28;20170;-72
2021/11/12 14:55:34;;;;;;;21.30;13.55;;;4.40;99.90;;;;;;5033277;28;20656;-66
2021/11/12 14:57:59;;;;;;;17.42;12.80;;;4.30;99.90;;;;;;5032767;28;20197;-68
2021/11/12 15:00:27;;;;;;;17.90;9.90;;;4.30;99.90;;;;;;5033747;28;20170;-72
2021/11/12 15:02:53;;;;;;;21.38;13.10;;;4.20;99.90;;;;;;5035298;28;20646;-69
2021/11/12 15:05:21;;;;;;;18.17;13.33;;;4.20;99.90;;;;;;5035180;28;20253;-70
2021/11/12 15:08:21;;;;;;;24.27;12.77;;;4.30;99.90;;;;;;5034509;28;20209;-68
2021/11/12 15:10:40;;;;;;;15.10;10.73;;;4.30;99.90;;;;;;5033633;28;20193;-69
2021/11/12 15:13:06;;;;;;;15.85;9.68;;;4.20;99.90;;;;;;5035041;28;20197;-69
2021/11/12 15:15:32;;;;;;;15.07;11.93;;;4.20;99.90;;;;;;5034830;28;20206;-71
2021/11/12 15:18:03;;;;;;;19.03;9.57;;;4.30;99.90;;;;;;5034490;28;20670;-75
2021/11/12 15:20:29;;;;;;;13.10;11.80;;;4.30;99.90;;;;;;5033591;28;20428;-69
2021/11/12 15:27:55;;;;;;;14.67;10.60;;;4.30;99.90;;;;;;5033319;28;20190;-68
2021/11/12 15:30:27;;;;;;;17.77;10.45;;;4.30;99.90;;;;;;5033389;28;20573;-74
2021/11/12 15:33:07;;;;;;;18.00;11.07;;;4.30;99.90;;;;;;5033394;28;20661;-68
2021/11/12 15:35:34;;;;;;;20.90;12.85;;;4.30;99.90;;;;;;5034517;28;20173;-66
2021/11/12 15:40:40;;;;;;;18.48;11.13;;;4.20;99.90;;;;;;5034808;28;20183;-65
2021/11/12 15:48:10;;;;;;;14.00;10.87;;;4.20;99.90;;;;;;5033969;28;20190;-66
2021/11/12 16:01:14;;;;;;;17.15;10.90;;;4.00;99.90;;;;;;5034582;28;20177;-69
2021/11/12 16:11:24;;;;;;;10.55;9.52;;;3.90;99.90;;;;;;5033943;28;20185;-70
2021/11/12 16:14:25;;;;;;;13.27;7.90;;;3.80;99.90;;;;;;5034102;28;20170;-73
2021/11/12 16:26:56;;;;;;;20.07;12.40;;;3.70;99.90;;;;;;5032680;28;20227;-71
2021/11/12 16:29:46;;;;;;;14.80;10.10;;;3.60;99.90;;;;;;5032974;28;20569;-68
2021/11/12 16:32:28;;;;;;;11.18;8.80;;;3.60;99.90;;;;;;5033237;28;20542;-68
2021/11/12 16:34:59;;;;;;;12.05;8.18;;;3.70;99.90;;;;;;5033219;28;20257;-69
2021/11/12 16:37:27;;;;;;;11.98;7.65;;;3.70;99.90;;;;;;5032488;28;20158;-69
2021/11/12 17:03:21;;;;;;;14.77;10.05;;;3.70;99.90;;;;;;5036559;28;20274;-70
2021/11/12 17:08:44;;;;;;;18.40;11.15;;;3.70;99.90;;;;;;5035749;28;20252;-69
2021/11/12 17:11:23;;;;;;;14.00;10.00;;;3.70;99.90;;;;;;5034619;28;20165;-68
2021/11/12 17:49:11;;;;;;;14.27;9.88;;;3.70;99.90;;;;;;5032276;28;20288;-70
2021/11/12 17:52:00;;;;;;;17.58;12.63;;;3.80;99.90;;;;;;5030686;28;20170;-67
2021/11/12 18:05:25;;;;;;;9.20;7.40;;;3.60;99.90;;;;;;5027730;28;20248;-70
2021/11/12 21:45:28;;;;;;;8.45;7.38;;;2.90;99.90;;;;;;5033052;28;20609;-66
2021/11/12 21:47:41;;;;;;;11.85;9.68;;;2.90;99.90;;;;;;5030261;28;20205;-67
2021/11/12 21:50:07;;;;;;;12.83;9.17;;;2.90;99.90;;;;;;5041140;28;20623;-66
2021/11/12 21:52:32;;;;;;;9.30;8.10;;;2.80;99.90;;;;;;5052682;28;20668;-65
2021/11/12 21:54:58;;;;;;;13.60;10.40;;;2.80;99.90;;;;;;5052963;28;20177;-65
2021/11/12 21:57:24;;;;;;;11.33;9.13;;;2.80;99.90;;;;;;5052130;28;20205;-67
2021/11/12 21:59:49;;;;;;;10.77;8.23;;;2.80;99.90;;;;;;5053477;28;20181;-65
2021/11/12 22:02:16;;;;;;;14.20;10.53;;;2.80;99.90;;;;;;5056975;28;20227;-69
2021/11/12 22:04:42;;;;;;;12.32;9.10;;;2.80;99.90;;;;;;5056388;28;20292;-65
2021/11/12 22:07:07;;;;;;;11.03;9.17;;;2.80;99.90;;;;;;5054954;28;20255;-69
2021/11/12 22:09:36;;;;;;;10.43;9.23;;;2.80;99.90;;;;;;5046217;28;21040;-67
2021/11/12 22:12:03;;;;;;;13.55;8.65;;;2.80;99.90;;;;;;5036800;28;20174;-67
2021/11/12 22:14:29;;;;;;;12.38;10.02;;;2.80;99.90;;;;;;5039275;28;20247;-65
2021/11/12 22:16:56;;;;;;;14.07;8.80;;;2.90;99.90;;;;;;5036097;28;20517;-68
2021/11/12 22:19:22;;;;;;;13.15;9.18;;;2.80;99.90;;;;;;5036317;28;20252;-64
2021/11/12 22:21:48;;;;;;;11.27;7.68;;;2.80;99.90;;;;;;5036215;28;20612;-67
2021/11/12 22:24:14;;;;;;;12.87;8.47;;;2.80;99.90;;;;;;5036112;28;20170;-65
2021/11/12 22:26:46;;;;;;;12.13;7.68;;;2.80;99.90;;;;;;5035789;28;20170;-68
2021/11/12 22:29:12;;;;;;;12.25;10.60;;;2.80;99.90;;;;;;5036372;28;20182;-65
2021/11/12 22:31:38;;;;;;;12.90;11.02;;;2.90;99.90;;;;;;5036101;28;20252;-66
2021/11/12 22:34:04;;;;;;;12.93;10.38;;;2.90;99.90;;;;;;5051319;28;20541;-66
2021/11/12 22:36:30;;;;;;;9.80;8.77;;;2.90;99.90;;;;;;5035595;28;20301;-68
2021/11/12 22:38:55;;;;;;;16.60;10.93;;;2.90;99.90;;;;;;5034542;28;20190;-67
2021/11/12 22:41:21;;;;;;;12.40;10.20;;;2.90;99.90;;;;;;5036000;28;20193;-65
2021/11/12 22:43:58;;;;;;;20.00;7.80;;;2.90;99.90;;;;;;5035794;28;20686;-67
2021/11/12 22:46:26;;;;;;;10.82;7.90;;;2.90;99.90;;;;;;5035437;28;20456;-67
2021/11/12 22:48:52;;;;;;;11.45;9.93;;;2.90;99.90;;;;;;5035751;28;20578;-68
2021/11/12 22:51:18;;;;;;;12.67;10.10;;;2.90;99.90;;;;;;5035649;28;20170;-67
2021/11/12 22:53:44;;;;;;;18.60;9.87;;;3.00;99.90;;;;;;5035619;28;20412;-68
2021/11/12 22:56:09;;;;;;;11.93;9.77;;;3.00;99.90;;;;;;5035825;28;20217;-67
2021/11/12 22:58:35;;;;;;;14.60;10.40;;;3.00;99.90;;;;;;5035288;28;20201;-67
2021/11/12 23:01:07;;;;;;;13.97;10.87;;;3.00;99.90;;;;;;5035579;28;20174;-66
2021/11/12 23:03:33;;;;;;;14.93;8.45;;;3.00;99.90;;;;;;5035538;28;20408;-68
2021/11/12 23:05:58;;;;;;;15.47;10.20;;;3.00;99.90;;;;;;5035211;28;20561;-65
2021/11/12 23:08:24;;;;;;;11.57;8.90;;;3.10;99.90;;;;;;5034847;28;20190;-66
2021/11/12 23:10:51;;;;;;;15.10;10.63;;;3.10;99.90;;;;;;5035501;28;20233;-64
2021/11/12 23:13:17;;;;;;;9.77;8.75;;;3.10;99.90;;;;;;5035099;28;20304;-67
2021/11/12 23:15:43;;;;;;;15.83;11.70;;;3.10;99.90;;;;;;5034931;28;20281;-67
2021/11/12 23:18:08;;;;;;;11.50;9.60;;;3.10;99.90;;;;;;5034422;28;20424;-66
2021/11/12 23:20:34;;;;;;;10.53;9.53;;;3.10;99.90;;;;;;5035108;28;20645;-64